Bat Yam, Israel
Current Conditions -  °F | °C
As of 8:50 PM on Monday 24 Nov 2014 (Local Time) from LLSD Reporting Station
Clear Clear  
Wind Chill: 59°   Ceiling: Unl
Heat Index: 59°   Visibility: 6mi
Dew Point: 54°   Wind: 5mph
Humidity: 82%   Direction: 100°E
Pressure: 29.91"   Gusts: NA
Location:  32.02°N, 34.75°E
Report Text: LLSD 241750Z 10004KT CAVOK 15/12 Q1013 RMK FEW100
Loading
Personal Weather Stations






























Interactive Weather Map New forecast layout! Learn more

10-Day Weather Forecast

Advertisements
Track Severe Weather on mobile